createdAt,value
2018-01-03T00:01:15.196Z,95.80
2018-01-03T00:03:42.682Z,96.00
2018-01-03T00:06:10.202Z,95.70
2018-01-03T00:08:37.692Z,95.80
2018-01-03T00:11:05.937Z,96.00
2018-01-03T00:13:33.414Z,95.90
2018-01-03T00:16:01.948Z,96.10
2018-01-03T00:18:29.454Z,96.00
2018-01-03T00:20:56.950Z,96.00
2018-01-03T00:23:24.457Z,95.90
2018-01-03T00:25:51.957Z,96.00
2018-01-03T00:28:19.443Z,96.00
2018-01-03T00:30:46.959Z,96.00
2018-01-03T00:33:14.443Z,96.00
2018-01-03T00:35:41.947Z,96.00
2018-01-03T00:38:09.423Z,96.10
2018-01-03T00:40:37.678Z,96.20
2018-01-03T00:43:05.185Z,96.10
2018-01-03T00:45:32.688Z,96.30
2018-01-03T00:48:00.163Z,96.30
2018-01-03T00:50:28.426Z,96.40
2018-01-03T00:52:55.920Z,96.30
2018-01-03T00:55:23.407Z,96.30
2018-01-03T00:57:50.888Z,96.20
2018-01-03T01:00:18.380Z,96.20
2018-01-03T01:02:46.642Z,96.30
2018-01-03T01:05:14.136Z,96.20
2018-01-03T01:07:41.635Z,96.20
2018-01-03T01:10:09.116Z,96.20
2018-01-03T01:12:36.622Z,96.10
2018-01-03T01:15:04.106Z,96.10
2018-01-03T01:17:31.631Z,96.20
2018-01-03T01:19:59.144Z,96.40
2018-01-03T01:22:26.621Z,96.30
2018-01-03T01:24:54.873Z,96.70
2018-01-03T01:27:23.119Z,96.80
2018-01-03T01:29:50.878Z,96.70
2018-01-03T01:32:18.416Z,96.60
2018-01-03T01:34:45.887Z,96.60
2018-01-03T01:37:13.421Z,96.60
2018-01-03T01:39:40.893Z,96.50
2018-01-03T01:42:08.367Z,96.60
2018-01-03T01:44:35.847Z,96.60
2018-01-03T01:47:03.330Z,96.50
2018-01-03T01:49:30.812Z,96.50
2018-01-03T01:51:58.292Z,96.50
2018-01-03T01:54:25.779Z,96.50
2018-01-03T01:56:53.280Z,96.60
2018-01-03T01:59:20.778Z,96.60
2018-01-03T02:01:48.260Z,96.60
2018-01-03T02:04:16.508Z,96.70
2018-01-03T02:06:44.043Z,96.60
2018-01-03T02:09:11.524Z,96.70
2018-01-03T02:11:39.023Z,96.90
2018-01-03T02:14:07.298Z,97.00
2018-01-03T02:16:35.549Z,97.10
2018-01-03T02:19:03.046Z,96.90
2018-01-03T02:21:30.553Z,96.90
2018-01-03T02:23:58.055Z,96.90
2018-01-03T02:26:25.539Z,96.80
2018-01-03T02:28:53.048Z,97.00
2018-01-03T02:31:20.509Z,96.70
2018-01-03T02:33:48.777Z,96.80
2018-01-03T02:36:16.348Z,96.70
2018-01-03T02:38:44.605Z,96.80
2018-01-03T02:41:12.100Z,96.70
2018-01-03T02:43:39.599Z,96.80
2018-01-03T02:46:07.099Z,96.80
2018-01-03T02:48:34.573Z,96.70
2018-01-03T02:51:02.836Z,96.90
2018-01-03T02:53:30.331Z,96.80
2018-01-03T02:55:57.815Z,96.80
2018-01-03T02:58:25.334Z,96.80
2018-01-03T03:00:52.843Z,96.60
2018-01-03T03:03:20.356Z,96.70
2018-01-03T03:05:47.878Z,96.80
2018-01-03T03:08:16.146Z,96.90
2018-01-03T03:10:43.668Z,96.70
2018-01-03T03:13:11.174Z,96.80
2018-01-03T03:15:39.430Z,97.00
2018-01-03T03:18:06.910Z,96.80
2018-01-03T03:20:35.142Z,97.00
2018-01-03T03:23:02.601Z,96.90
2018-01-03T03:25:30.113Z,96.90
2018-01-03T03:27:57.610Z,97.00
2018-01-03T03:30:25.094Z,96.90
2018-01-03T03:32:52.606Z,96.90
2018-01-03T03:35:20.061Z,96.90
2018-01-03T03:37:47.538Z,97.30
2018-01-03T03:40:15.026Z,97.10
2018-01-03T03:42:42.531Z,97.10
2018-01-03T03:45:10.019Z,97.10
2018-01-03T03:47:37.730Z,97.10
2018-01-03T03:50:05.987Z,97.20
2018-01-03T03:52:33.519Z,97.40
2018-01-03T03:55:00.973Z,97.20
2018-01-03T03:57:28.487Z,97.10
2018-01-03T03:59:55.993Z,96.90
2018-01-03T04:02:23.471Z,97.00
2018-01-03T04:04:50.977Z,96.80
2018-01-03T04:07:18.460Z,96.90
2018-01-03T04:09:46.731Z,96.90
2018-01-03T04:12:14.193Z,96.80
2018-01-03T04:14:41.680Z,97.00
2018-01-03T04:17:09.186Z,97.00
2018-01-03T04:19:36.688Z,97.00
2018-01-03T04:22:04.183Z,97.00
2018-01-03T04:24:31.660Z,97.10
2018-01-03T04:26:59.134Z,97.20
2018-01-03T04:29:26.611Z,97.20
2018-01-03T04:31:54.096Z,97.10
2018-01-03T04:34:29.064Z,97.20
2018-01-03T04:36:57.338Z,97.20
2018-01-03T04:39:24.802Z,97.20
2018-01-03T04:41:52.276Z,97.10
2018-01-03T04:44:19.777Z,97.20
2018-01-03T04:46:47.241Z,97.20
2018-01-03T04:49:14.718Z,97.40
2018-01-03T04:51:42.202Z,97.20
2018-01-03T04:54:09.664Z,97.20
2018-01-03T04:56:37.145Z,97.30
2018-01-03T04:59:04.617Z,97.30
2018-01-03T05:01:32.272Z,97.50
2018-01-03T05:03:59.893Z,97.60
2018-01-03T05:06:27.355Z,97.90
2018-01-03T05:08:54.852Z,98.00
2018-01-03T05:11:23.250Z,98.00
2018-01-03T05:13:50.731Z,98.10
2018-01-03T05:16:18.228Z,98.20
2018-01-03T05:18:46.508Z,98.30
2018-01-03T05:21:13.999Z,98.30
2018-01-03T05:23:41.467Z,98.40
2018-01-03T05:26:08.998Z,98.40
2018-01-03T05:28:36.466Z,98.30
2018-01-03T05:31:03.946Z,98.20
2018-01-03T05:33:31.446Z,98.10
2018-01-03T05:35:58.949Z,95.40
2018-01-03T05:38:26.436Z,93.80
2018-01-03T05:40:53.964Z,93.70
2018-01-03T05:43:22.232Z,93.30
2018-01-03T05:45:49.733Z,93.20
2018-01-03T05:48:17.238Z,92.70
2018-01-03T05:50:44.776Z,92.00
2018-01-03T05:53:12.257Z,92.10
2018-01-03T05:58:14.582Z,93.10
2018-01-03T06:00:42.095Z,93.20
2018-01-03T06:03:15.277Z,93.30
2018-01-03T06:05:42.755Z,93.30
2018-01-03T06:08:10.251Z,92.90
2018-01-03T06:10:37.748Z,93.00
2018-01-03T06:13:05.216Z,92.80
2018-01-03T06:15:33.483Z,93.50
2018-01-03T06:18:01.732Z,92.80
2018-01-03T06:20:29.209Z,92.80
2018-01-03T06:22:56.709Z,92.10
2018-01-03T06:25:24.200Z,93.00
2018-01-03T06:27:51.750Z,91.30
2018-01-03T06:30:19.234Z,90.10
2018-01-03T06:32:46.701Z,91.10
2018-01-03T06:35:14.208Z,90.70
2018-01-03T06:37:41.682Z,90.80
2018-01-03T06:40:09.179Z,90.90
2018-01-03T06:42:36.663Z,91.30
2018-01-03T06:45:04.191Z,91.60
2018-01-03T06:47:31.706Z,91.70
2018-01-03T06:49:59.191Z,92.50
2018-01-03T06:52:26.701Z,92.70
2018-01-03T06:54:54.174Z,93.20
2018-01-03T06:57:21.668Z,93.60
2018-01-03T06:59:50.419Z,93.80
2018-01-03T07:02:17.906Z,93.60
2018-01-03T07:04:46.215Z,93.50
2018-01-03T07:07:14.595Z,93.80
2018-01-03T07:09:42.060Z,93.70
2018-01-03T07:12:10.273Z,93.40
2018-01-03T07:14:37.757Z,92.70
2018-01-03T07:17:06.127Z,92.70
2018-01-03T07:19:33.627Z,92.30
2018-01-03T07:22:01.115Z,92.30
2018-01-03T07:24:28.626Z,92.20
2018-01-03T07:26:56.104Z,91.30
2018-01-03T07:29:23.606Z,90.80
2018-01-03T07:31:51.091Z,90.70
2018-01-03T07:34:18.575Z,90.30
2018-01-03T07:36:46.071Z,90.30
2018-01-03T07:39:14.351Z,87.10
2018-01-03T07:41:41.848Z,86.90
2018-01-03T07:44:10.113Z,89.20
2018-01-03T07:46:37.609Z,89.00
2018-01-03T07:49:05.084Z,88.00
2018-01-03T07:51:32.571Z,88.20
2018-01-03T07:54:00.077Z,87.60
2018-01-03T07:56:27.583Z,87.30
2018-01-03T07:58:55.067Z,87.70
2018-01-03T08:01:23.337Z,87.30
2018-01-03T08:03:50.818Z,87.10
2018-01-03T08:06:18.337Z,87.00
2018-01-03T08:08:45.827Z,87.00
2018-01-03T08:11:14.070Z,86.40
2018-01-03T08:13:41.572Z,86.30
2018-01-03T08:16:09.063Z,86.00
2018-01-03T08:18:36.588Z,85.60
2018-01-03T08:21:04.113Z,84.00
2018-01-03T08:23:31.610Z,85.40
2018-01-03T08:25:59.293Z,84.10
2018-01-03T08:28:26.766Z,83.50
2018-01-03T08:30:54.251Z,82.80
2018-01-03T08:33:21.747Z,83.30
2018-01-03T08:35:49.243Z,82.50
2018-01-03T08:38:16.748Z,82.30
2018-01-03T08:40:44.234Z,83.30
2018-01-03T08:43:11.736Z,83.10
2018-01-03T08:45:39.221Z,83.40
2018-01-03T08:48:06.749Z,83.20
2018-01-03T08:50:34.242Z,83.10
2018-01-03T08:53:01.729Z,82.30
2018-01-03T08:55:29.226Z,81.30
2018-01-03T08:57:56.723Z,81.40
2018-01-03T09:00:24.206Z,80.20
2018-01-03T09:02:51.713Z,79.20
2018-01-03T09:05:19.202Z,80.00
2018-01-03T09:07:46.686Z,79.80
2018-01-03T09:10:14.183Z,80.70
2018-01-03T09:12:42.416Z,80.30
2018-01-03T09:15:09.919Z,80.10
2018-01-03T09:17:37.437Z,79.20
2018-01-03T09:20:04.985Z,80.80
2018-01-03T09:22:32.507Z,80.50
2018-01-03T09:25:00.758Z,81.20
2018-01-03T09:27:28.252Z,81.00
2018-01-03T09:29:55.759Z,80.90
2018-01-03T09:32:23.291Z,81.40
2018-01-03T09:34:50.826Z,81.60
2018-01-03T09:37:18.303Z,81.70
2018-01-03T09:39:45.816Z,82.10
2018-01-03T09:42:14.058Z,79.30
2018-01-03T09:44:41.581Z,79.20
2018-01-03T09:47:09.541Z,79.50
2018-01-03T09:49:37.034Z,78.90
2018-01-03T09:52:04.525Z,78.40
2018-01-03T09:54:32.018Z,78.10
2018-01-03T09:56:59.518Z,76.30
2018-01-03T09:59:26.995Z,76.60
2018-01-03T10:01:54.492Z,76.60
2018-01-03T10:04:22.024Z,74.90
2018-01-03T10:06:49.517Z,72.40
2018-01-03T10:09:17.010Z,73.60
2018-01-03T10:11:44.615Z,73.20
2018-01-03T10:14:12.132Z,73.20
2018-01-03T10:16:39.650Z,73.50
2018-01-03T10:19:07.179Z,72.70
2018-01-03T10:21:34.685Z,73.00
2018-01-03T10:24:02.210Z,74.10
2018-01-03T10:26:29.710Z,75.10
2018-01-03T10:28:57.198Z,75.00
2018-01-03T10:31:24.694Z,75.10
2018-01-03T10:33:52.309Z,75.80
2018-01-03T10:36:20.571Z,79.00
2018-01-03T10:38:48.077Z,78.80
2018-01-03T10:41:15.650Z,80.10
2018-01-03T10:43:43.147Z,81.90
2018-01-03T10:46:10.678Z,85.10
2018-01-03T10:48:38.191Z,86.30
2018-01-03T10:51:07.406Z,85.90
2018-01-03T10:53:34.916Z,85.80
2018-01-03T10:56:02.406Z,85.00
2018-01-03T10:58:30.686Z,81.80
2018-01-03T11:00:58.951Z,82.10
2018-01-03T11:03:32.328Z,81.80
2018-01-03T11:05:59.825Z,80.70
2018-01-03T11:08:27.322Z,80.30
2018-01-03T11:10:54.822Z,80.50
2018-01-03T11:13:22.342Z,80.40
2018-01-03T11:15:50.606Z,80.40
2018-01-03T11:18:18.086Z,80.20
2018-01-03T11:20:45.609Z,79.10
2018-01-03T11:23:13.147Z,79.40
2018-01-03T11:25:40.634Z,78.10
2018-01-03T11:28:08.117Z,77.70
2018-01-03T11:30:35.828Z,75.00
2018-01-03T11:33:03.316Z,75.10
2018-01-03T11:35:30.799Z,76.00
2018-01-03T11:37:58.314Z,76.40
2018-01-03T11:40:25.812Z,76.40
2018-01-03T11:42:53.292Z,77.40
2018-01-03T11:45:20.792Z,80.10
2018-01-03T11:47:48.285Z,81.30
2018-01-03T11:50:15.797Z,81.60
2018-01-03T11:52:43.284Z,81.10
2018-01-03T11:55:10.810Z,79.30
2018-01-03T11:57:38.389Z,78.20
2018-01-03T12:00:05.874Z,75.90
2018-01-03T12:02:33.386Z,74.30
2018-01-03T12:05:00.934Z,72.70
2018-01-03T12:07:29.231Z,73.50
2018-01-03T12:09:56.730Z,73.30
2018-01-03T12:12:24.480Z,73.40
2018-01-03T12:14:52.751Z,73.50
2018-01-03T12:17:20.267Z,73.20
2018-01-03T12:19:48.515Z,75.20
2018-01-03T12:22:16.012Z,75.20
2018-01-03T12:24:43.492Z,76.00
2018-01-03T12:27:11.059Z,75.40
2018-01-03T12:29:38.585Z,76.60
2018-01-03T12:32:06.081Z,77.20
2018-01-03T12:34:33.584Z,77.30
2018-01-03T12:37:01.850Z,75.50
2018-01-03T12:39:29.364Z,75.30
2018-01-03T12:41:56.836Z,75.50
2018-01-03T12:44:24.367Z,74.30
2018-01-03T12:46:51.864Z,74.50
2018-01-03T12:49:19.393Z,75.80
2018-01-03T12:51:46.850Z,75.70
2018-01-03T12:54:14.351Z,75.00
2018-01-03T12:56:42.602Z,74.70
2018-01-03T12:59:10.105Z,74.50
2018-01-03T13:01:37.615Z,73.00
2018-01-03T13:04:05.105Z,72.50
2018-01-03T13:06:32.608Z,72.80
2018-01-03T13:09:00.152Z,73.00
2018-01-03T13:11:27.703Z,73.70
2018-01-03T13:13:55.222Z,73.90
2018-01-03T13:16:22.764Z,74.30
2018-01-03T13:18:50.286Z,74.50
2018-01-03T13:21:17.769Z,75.80
2018-01-03T13:23:45.270Z,76.80
2018-01-03T13:26:12.772Z,77.80
2018-01-03T13:28:40.256Z,79.10
2018-01-03T13:31:07.810Z,80.90
2018-01-03T13:36:09.210Z,83.70
2018-01-03T13:38:37.462Z,85.70
2018-01-03T13:41:04.955Z,85.50
2018-01-03T13:43:32.439Z,87.60
2018-01-03T13:45:59.958Z,89.00
2018-01-03T13:48:28.248Z,89.10
2018-01-03T13:50:55.777Z,88.40
2018-01-03T13:53:23.267Z,88.60
2018-01-03T13:55:51.567Z,85.90
2018-01-03T13:58:19.066Z,85.70
2018-01-03T14:00:46.586Z,85.50
2018-01-03T14:03:14.082Z,85.60
2018-01-03T14:05:41.598Z,85.70
2018-01-03T14:08:09.104Z,85.60
2018-01-03T14:10:36.585Z,85.40
2018-01-03T14:13:04.830Z,86.00
2018-01-03T14:15:32.311Z,86.50
2018-01-03T14:18:00.578Z,87.10
2018-01-03T14:20:28.885Z,87.90
2018-01-03T14:22:56.390Z,87.80
2018-01-03T14:25:23.894Z,88.30
2018-01-03T14:27:51.400Z,89.70
2018-01-03T14:30:18.929Z,90.20
2018-01-03T14:32:46.432Z,90.40
2018-01-03T14:35:13.915Z,91.10
2018-01-03T14:37:41.456Z,92.00
2018-01-03T14:40:08.930Z,92.30
2018-01-03T14:42:37.201Z,93.00
2018-01-03T14:45:05.482Z,93.20
2018-01-03T14:47:33.753Z,93.80
2018-01-03T14:50:02.041Z,93.60
2018-01-03T14:52:30.280Z,93.60
2018-01-03T14:54:57.785Z,93.50
2018-01-03T14:57:25.324Z,93.90
2018-01-03T14:59:53.556Z,94.30
2018-01-03T15:02:21.100Z,94.10
2018-01-03T15:04:48.613Z,93.90
2018-01-03T15:07:16.107Z,93.40
2018-01-03T15:09:43.674Z,93.30
2018-01-03T15:12:11.164Z,93.10
2018-01-03T15:14:38.680Z,92.90
2018-01-03T15:17:06.177Z,92.60
2018-01-03T15:19:33.698Z,92.50
2018-01-03T15:22:01.218Z,92.20
2018-01-03T15:24:29.454Z,92.10
2018-01-03T15:26:56.950Z,91.90
2018-01-03T15:29:25.231Z,92.50
2018-01-03T15:31:53.535Z,92.70
2018-01-03T15:34:21.069Z,92.70
2018-01-03T15:36:49.333Z,93.00
2018-01-03T15:39:16.865Z,93.00
2018-01-03T15:41:44.394Z,93.00
2018-01-03T15:44:11.923Z,93.50
2018-01-03T15:46:39.435Z,93.70
2018-01-03T15:49:07.717Z,93.90
2018-01-03T15:51:35.212Z,93.80
2018-01-03T15:54:03.486Z,93.60
2018-01-03T15:56:31.729Z,93.70
2018-01-03T15:58:59.254Z,93.50
2018-01-03T16:01:26.754Z,93.40
2018-01-03T16:03:54.286Z,92.80
2018-01-03T16:06:21.766Z,92.70
2018-01-03T16:08:49.285Z,92.40
2018-01-03T16:11:16.801Z,92.50
2018-01-03T16:13:45.068Z,93.00
2018-01-03T16:16:13.336Z,93.00
2018-01-03T16:18:40.824Z,92.90
2018-01-03T16:21:09.079Z,92.80
2018-01-03T16:23:37.395Z,92.80
2018-01-03T16:26:04.884Z,92.70
2018-01-03T16:28:32.394Z,92.20
2018-01-03T16:31:00.655Z,92.50
2018-01-03T16:33:28.158Z,92.40
2018-01-03T16:35:55.671Z,91.90
2018-01-03T16:38:23.936Z,91.70
2018-01-03T16:40:51.445Z,91.60
2018-01-03T16:43:18.942Z,91.90
2018-01-03T16:45:46.409Z,91.90
2018-01-03T16:48:13.922Z,91.90
2018-01-03T16:50:41.402Z,91.60
2018-01-03T16:53:08.918Z,91.60
2018-01-03T16:55:36.392Z,91.50
2018-01-03T16:58:08.681Z,91.50
2018-01-03T17:00:36.176Z,91.30
2018-01-03T17:03:03.679Z,91.40
2018-01-03T17:05:31.198Z,91.30
2018-01-03T17:07:59.466Z,91.60
2018-01-03T17:10:27.733Z,91.40
2018-01-03T17:12:55.992Z,91.00
2018-01-03T17:15:23.476Z,90.90
2018-01-03T17:17:51.741Z,90.40
2018-01-03T17:20:19.231Z,90.30
2018-01-03T17:22:46.740Z,90.30
2018-01-03T17:25:14.221Z,90.10
2018-01-03T17:27:41.749Z,90.30
2018-01-03T17:30:09.278Z,90.40
2018-01-03T17:32:36.765Z,90.50
2018-01-03T17:35:04.287Z,90.60
2018-01-03T17:37:31.798Z,90.70
2018-01-03T17:39:59.757Z,90.70
2018-01-03T17:42:27.308Z,90.90
2018-01-03T17:44:54.814Z,90.90
2018-01-03T17:47:23.093Z,91.30
2018-01-03T17:49:50.614Z,91.20
2018-01-03T17:52:18.098Z,91.40
2018-01-03T17:54:45.591Z,91.20
2018-01-03T17:57:13.074Z,91.20
2018-01-03T17:59:40.840Z,91.10
2018-01-03T18:02:08.337Z,91.10
2018-01-03T18:04:36.589Z,91.40
2018-01-03T18:07:04.121Z,91.40
2018-01-03T18:09:31.610Z,90.90
2018-01-03T18:11:59.168Z,90.80
2018-01-03T18:14:27.443Z,91.40
2018-01-03T18:16:54.926Z,91.40
2018-01-03T18:19:22.475Z,91.60
2018-01-03T18:21:49.964Z,92.20
2018-01-03T18:24:17.544Z,92.80
2018-01-03T18:26:45.056Z,93.20
2018-01-03T18:29:13.371Z,93.90
2018-01-03T18:31:40.869Z,93.80
2018-01-03T18:34:08.362Z,93.90
2018-01-03T18:36:35.858Z,94.20
2018-01-03T18:39:03.362Z,94.50
2018-01-03T18:41:31.633Z,95.30
2018-01-03T18:43:59.760Z,95.20
2018-01-03T18:46:27.250Z,94.70
2018-01-03T18:48:54.795Z,95.10
2018-01-03T18:51:22.288Z,95.40
2018-01-03T18:53:50.565Z,94.90
2018-01-03T18:56:18.862Z,95.00
2018-01-03T18:58:46.411Z,94.90
2018-01-03T19:01:14.402Z,94.60
2018-01-03T19:03:41.898Z,94.50
2018-01-03T19:06:09.396Z,94.10
2018-01-03T19:08:37.676Z,94.20
2018-01-03T19:11:05.170Z,94.10
2018-01-03T19:13:32.694Z,93.40
2018-01-03T19:16:00.194Z,93.40
2018-01-03T19:18:27.700Z,93.20
2018-01-03T19:20:55.213Z,92.70
2018-01-03T19:23:22.738Z,92.70
2018-01-03T19:25:50.232Z,92.20
2018-01-03T19:28:17.741Z,92.40
2018-01-03T19:30:45.237Z,91.90
2018-01-03T19:33:12.775Z,91.80
2018-01-03T19:35:40.263Z,91.80
2018-01-03T19:38:07.769Z,91.40
2018-01-03T19:40:35.269Z,91.40
2018-01-03T19:43:02.752Z,91.20
2018-01-03T19:45:30.268Z,91.20
2018-01-03T19:47:57.755Z,91.00
2018-01-03T19:50:25.274Z,91.20
2018-01-03T19:52:52.873Z,90.90
2018-01-03T19:55:20.387Z,90.40
2018-01-03T19:57:47.882Z,90.20
2018-01-03T20:00:15.367Z,90.10
2018-01-03T20:02:43.640Z,90.10
2018-01-03T20:05:11.942Z,89.60
2018-01-03T20:07:39.478Z,89.50
2018-01-03T20:10:07.008Z,89.60
2018-01-03T20:12:34.532Z,89.50
2018-01-03T20:15:02.064Z,90.00
2018-01-03T20:17:29.554Z,90.10
2018-01-03T20:19:58.135Z,90.10
2018-01-03T20:22:27.027Z,90.20
2018-01-03T20:24:54.939Z,90.70
2018-01-03T20:27:24.110Z,91.50
2018-01-03T20:29:51.603Z,91.50
2018-01-03T20:32:19.873Z,91.90
2018-01-03T20:34:47.386Z,91.50
2018-01-03T20:37:14.885Z,91.80
2018-01-03T20:39:42.366Z,92.80
2018-01-03T20:42:10.651Z,93.90
2018-01-03T20:44:38.154Z,93.30
2018-01-03T20:47:06.447Z,94.30
2018-01-03T20:49:34.827Z,93.40
2018-01-03T20:52:02.357Z,93.60
2018-01-03T20:54:29.871Z,94.00
2018-01-03T20:56:58.152Z,94.30
2018-01-03T20:59:25.651Z,94.20
2018-01-03T21:01:53.142Z,94.50
2018-01-03T21:04:21.410Z,94.60
2018-01-03T21:06:48.906Z,94.50
2018-01-03T21:09:16.426Z,94.70
2018-01-03T21:11:43.938Z,95.00
2018-01-03T21:14:11.429Z,95.00
2018-01-03T21:16:39.277Z,94.90
2018-01-03T21:19:06.780Z,94.80
2018-01-03T21:21:35.041Z,94.80
2018-01-03T21:24:02.534Z,94.80
2018-01-03T21:26:30.053Z,95.00
2018-01-03T21:28:57.547Z,95.00
2018-01-03T21:31:25.047Z,94.90
2018-01-03T21:33:52.976Z,94.50
2018-01-03T21:36:20.502Z,94.50
2018-01-03T21:38:48.826Z,94.80
2018-01-03T21:41:16.336Z,95.00
2018-01-03T21:43:44.639Z,95.40
2018-01-03T21:46:12.894Z,95.70
2018-01-03T21:48:40.422Z,95.50
2018-01-03T21:51:07.929Z,95.50
2018-01-03T21:53:35.483Z,95.20
2018-01-03T21:56:03.754Z,95.40
2018-01-03T21:58:32.021Z,95.40
2018-01-03T22:00:59.518Z,95.30
2018-01-03T22:03:27.022Z,95.10
2018-01-03T22:05:54.514Z,95.20
2018-01-03T22:08:22.008Z,95.20
2018-01-03T22:10:49.481Z,94.60
2018-01-03T22:13:18.560Z,94.40
2018-01-03T22:15:46.031Z,94.40
2018-01-03T22:18:13.508Z,94.20
2018-01-03T22:20:41.024Z,93.70
2018-01-03T22:23:08.530Z,93.70
2018-01-03T22:25:36.062Z,93.60
2018-01-03T22:28:03.551Z,93.60
2018-01-03T22:30:31.067Z,93.40
2018-01-03T22:32:58.580Z,93.40
2018-01-03T22:35:26.070Z,93.30
2018-01-03T22:37:53.621Z,93.40
2018-01-03T22:40:21.115Z,93.40
2018-01-03T22:42:48.630Z,93.50
2018-01-03T22:45:16.143Z,93.60
2018-01-03T22:47:43.653Z,93.60
2018-01-03T22:50:11.149Z,93.70
2018-01-03T22:52:38.678Z,93.80
2018-01-03T22:55:06.161Z,93.90
2018-01-03T22:57:33.667Z,93.90
2018-01-03T23:00:01.184Z,93.80
2018-01-03T23:02:29.073Z,93.60
2018-01-03T23:04:56.561Z,93.50
2018-01-03T23:07:24.067Z,93.40
2018-01-03T23:09:51.561Z,93.70
2018-01-03T23:12:19.817Z,93.40
2018-01-03T23:14:48.361Z,93.40
2018-01-03T23:17:15.842Z,93.20
2018-01-03T23:19:43.316Z,93.30
2018-01-03T23:22:10.828Z,93.60
2018-01-03T23:24:38.332Z,93.90
2018-01-03T23:27:05.944Z,93.90
2018-01-03T23:29:33.447Z,94.40
2018-01-03T23:32:00.935Z,94.40
2018-01-03T23:34:28.427Z,94.70
2018-01-03T23:36:55.921Z,94.70
2018-01-03T23:39:24.194Z,95.00
2018-01-03T23:41:51.679Z,94.90
2018-01-03T23:44:19.930Z,95.00
2018-01-03T23:46:47.408Z,95.00
2018-01-03T23:49:15.698Z,95.00
2018-01-03T23:51:43.518Z,95.00
2018-01-03T23:54:11.021Z,94.50
2018-01-03T23:56:38.511Z,94.60
2018-01-03T23:59:06.062Z,94.50
